Time;durP1;ratioP1;P1;durP2;ratioP2;P2;SDS_P1;SDS_P2;PMS_P1;PMS_P2;Temp;Humidity;BMP_temperature;BMP_pressure;BME280_temperature;BME280_humidity;BME280_pressure;Samples;Min_cycle;Max_cycle;Signal;HPM_P1;HPM_P2
2021/04/03 00:02:22;;;;;;;9.97;9.00;;;6.90;99.90;;;;;;5040861;28;20207;-77
2021/04/03 00:04:49;;;;;;;9.23;7.40;;;6.90;99.90;;;;;;5035330;28;20223;-78
2021/04/03 00:07:15;;;;;;;10.07;9.17;;;6.90;99.90;;;;;;5049123;28;20210;-77
2021/04/03 00:09:42;;;;;;;11.40;8.90;;;6.90;99.90;;;;;;5033047;28;20197;-77
2021/04/03 00:12:10;;;;;;;9.87;8.83;;;6.90;99.90;;;;;;5031528;28;20200;-78
2021/04/03 00:14:37;;;;;;;9.33;8.40;;;6.90;99.90;;;;;;5031693;28;20225;-77
2021/04/03 00:17:04;;;;;;;9.30;7.40;;;6.90;99.90;;;;;;5028436;28;20202;-77
2021/04/03 00:19:30;;;;;;;10.33;9.33;;;6.80;99.90;;;;;;5035149;28;20269;-77
2021/04/03 00:21:56;;;;;;;8.63;7.77;;;6.80;99.90;;;;;;5031535;28;20213;-77
2021/04/03 00:24:23;;;;;;;7.87;5.97;;;6.70;99.90;;;;;;5023059;28;20227;-77
2021/04/03 00:26:49;;;;;;;8.60;5.80;;;6.50;99.90;;;;;;5027099;28;20219;-77
2021/04/03 00:29:16;;;;;;;8.03;5.00;;;6.60;99.90;;;;;;5041571;28;20609;-77
2021/04/03 00:31:42;;;;;;;11.03;8.97;;;6.60;99.90;;;;;;5035935;28;20657;-76
2021/04/03 00:34:09;;;;;;;10.70;7.30;;;6.50;99.90;;;;;;5022914;28;20222;-78
2021/04/03 00:36:35;;;;;;;9.13;6.37;;;6.50;99.90;;;;;;5030928;28;20314;-78
2021/04/03 00:39:01;;;;;;;8.90;8.00;;;6.50;99.90;;;;;;5037527;28;20254;-78
2021/04/03 00:41:28;;;;;;;10.00;8.97;;;6.50;99.90;;;;;;5034729;28;20289;-78
2021/04/03 00:43:54;;;;;;;11.73;9.17;;;6.50;99.90;;;;;;5036770;28;20220;-77
2021/04/03 00:46:22;;;;;;;11.93;9.20;;;6.40;99.90;;;;;;5030585;28;20195;-78
2021/04/03 00:48:49;;;;;;;11.53;9.40;;;6.40;99.90;;;;;;5026568;28;20245;-77
2021/04/03 00:51:15;;;;;;;10.93;9.30;;;6.30;99.90;;;;;;5039455;28;20564;-77
2021/04/03 00:53:42;;;;;;;14.40;9.57;;;6.30;99.90;;;;;;5026349;28;20204;-77
2021/04/03 00:56:09;;;;;;;11.13;10.03;;;6.30;99.90;;;;;;5033922;28;20662;-77
2021/04/03 00:58:36;;;;;;;10.47;9.37;;;6.20;99.90;;;;;;5028327;28;20189;-77
2021/04/03 01:01:05;;;;;;;11.03;9.20;;;6.20;99.90;;;;;;5030592;28;20246;-77
2021/04/03 01:03:37;;;;;;;16.27;9.87;;;6.20;99.90;;;;;;5018048;28;20208;-76
2021/04/03 01:06:05;;;;;;;14.67;9.90;;;6.10;99.90;;;;;;5014421;28;20692;-77
2021/04/03 01:08:32;;;;;;;11.07;9.83;;;6.10;99.90;;;;;;5037874;28;20646;-77
2021/04/03 01:10:59;;;;;;;12.23;8.83;;;6.20;99.90;;;;;;5027682;28;20204;-77
2021/04/03 01:13:58;;;;;;;10.17;9.13;;;6.20;99.90;;;;;;5025785;28;20277;-77
2021/04/03 01:16:35;;;;;;;10.67;9.57;;;6.20;99.90;;;;;;5052021;23;20247;-78
2021/04/03 01:19:29;;;;;;;12.83;9.40;;;6.20;99.90;;;;;;5019153;28;20685;-79
2021/04/03 01:22:18;;;;;;;11.73;9.87;;;6.10;99.90;;;;;;5007556;28;20359;-78
2021/04/03 01:25:00;;;;;;;12.07;9.93;;;6.10;99.90;;;;;;5022068;28;20254;-79
2021/04/03 01:27:29;;;;;;;11.57;10.13;;;6.10;99.90;;;;;;5022551;28;20220;-79
2021/04/03 01:30:13;;;;;;;13.87;10.17;;;6.00;99.90;;;;;;5019047;28;20202;-79
2021/04/03 01:32:57;;;;;;;11.87;9.97;;;6.00;99.90;;;;;;5024591;28;20201;-78
2021/04/03 01:35:30;;;;;;;11.33;9.80;;;5.90;99.90;;;;;;5018978;28;20229;-79
2021/04/03 01:38:01;;;;;;;15.80;10.30;;;5.90;99.90;;;;;;5018808;28;20197;-78
2021/04/03 01:40:30;;;;;;;13.13;10.53;;;5.90;99.90;;;;;;5016347;28;20240;-79
2021/04/03 01:43:03;;;;;;;11.30;10.07;;;5.90;99.90;;;;;;5019537;28;20768;-79
2021/04/03 01:45:32;;;;;;;16.60;10.77;;;5.80;99.90;;;;;;5015127;28;20307;-79
2021/04/03 01:48:00;;;;;;;11.77;10.57;;;5.80;99.90;;;;;;5013416;28;20215;-79
2021/04/03 01:50:28;;;;;;;11.37;10.27;;;5.70;99.90;;;;;;5013620;28;20220;-79
2021/04/03 01:52:55;;;;;;;11.23;10.13;;;5.70;99.90;;;;;;5010755;28;20739;-79
2021/04/03 01:55:25;;;;;;;11.50;10.30;;;5.70;99.90;;;;;;5019376;28;20243;-78
2021/04/03 01:57:53;;;;;;;13.03;10.70;;;5.70;99.90;;;;;;5021424;28;20189;-79
2021/04/03 02:00:23;;;;;;;12.20;10.40;;;5.70;99.90;;;;;;5019785;28;20203;-77
2021/04/03 02:02:59;;;;;;;17.07;11.20;;;5.70;99.90;;;;;;5018723;28;20271;-79
2021/04/03 02:05:28;;;;;;;11.13;9.77;;;5.60;99.90;;;;;;5014316;28;20225;-77
2021/04/03 02:08:13;;;;;;;12.17;10.87;;;5.60;99.90;;;;;;5017512;28;20303;-78
2021/04/03 02:10:43;;;;;;;13.03;10.30;;;5.60;99.90;;;;;;5023537;28;20220;-78
2021/04/03 02:13:11;;;;;;;11.07;9.97;;;5.60;99.90;;;;;;5011977;28;20192;-79
2021/04/03 02:15:48;;;;;;;12.77;10.13;;;5.60;99.90;;;;;;5017728;28;20286;-79
2021/04/03 02:18:18;;;;;;;11.03;9.80;;;5.50;99.90;;;;;;5017975;28;20197;-79
2021/04/03 02:20:44;;;;;;;10.90;9.80;;;5.60;99.90;;;;;;5014774;28;20191;-79
2021/04/03 02:23:12;;;;;;;10.17;9.27;;;5.60;99.90;;;;;;5020571;28;20196;-78
2021/04/03 02:25:42;;;;;;;11.97;9.33;;;5.60;99.90;;;;;;5023228;28;20303;-79
2021/04/03 02:28:16;;;;;;;10.57;9.53;;;5.60;99.90;;;;;;5015841;28;20540;-79
2021/04/03 02:30:49;;;;;;;12.07;10.77;;;5.60;99.90;;;;;;5008537;28;20193;-77
2021/04/03 02:33:16;;;;;;;10.47;9.43;;;5.60;99.90;;;;;;5014231;28;20201;-79
2021/04/03 02:35:42;;;;;;;11.20;9.47;;;5.50;99.90;;;;;;5013454;28;20236;-77
2021/04/03 02:38:13;;;;;;;10.47;9.30;;;5.50;99.90;;;;;;5019688;28;20222;-79
2021/04/03 02:40:59;;;;;;;11.63;9.30;;;5.60;99.90;;;;;;5017904;28;20236;-78
2021/04/03 02:43:28;;;;;;;14.00;9.73;;;5.60;99.90;;;;;;5020252;28;20204;-78
2021/04/03 02:45:59;;;;;;;10.20;9.20;;;5.60;99.90;;;;;;5008897;28;20212;-78
2021/04/03 02:48:30;;;;;;;11.90;9.80;;;5.50;99.90;;;;;;5019904;28;20314;-78
2021/04/03 02:51:01;;;;;;;10.63;9.37;;;5.50;99.90;;;;;;5021075;28;20204;-78
2021/04/03 02:53:32;;;;;;;9.97;9.07;;;5.50;99.90;;;;;;5024443;28;20199;-80
2021/04/03 02:56:05;;;;;;;12.10;9.70;;;5.60;99.90;;;;;;5024503;28;20370;-81
2021/04/03 02:58:37;;;;;;;10.00;9.10;;;5.60;99.90;;;;;;5005161;28;20217;-81
2021/04/03 03:01:10;;;;;;;11.00;9.90;;;5.50;99.90;;;;;;5013345;28;20693;-82
2021/04/03 03:03:41;;;;;;;13.20;9.70;;;5.60;99.90;;;;;;5020829;28;20209;-82
2021/04/03 03:06:11;;;;;;;11.47;9.90;;;5.60;99.90;;;;;;5004894;28;20224;-79
2021/04/03 03:08:38;;;;;;;11.00;9.70;;;5.60;99.90;;;;;;5000042;28;20220;-80
2021/04/03 03:11:04;;;;;;;10.57;9.57;;;5.60;99.90;;;;;;5015506;28;20258;-81
2021/04/03 03:13:34;;;;;;;10.43;9.33;;;5.60;99.90;;;;;;5016033;28;20717;-81
2021/04/03 03:16:02;;;;;;;10.80;9.53;;;5.50;99.90;;;;;;5009116;28;20217;-81
2021/04/03 03:18:29;;;;;;;10.30;9.30;;;5.50;99.90;;;;;;5014773;28;20669;-81
2021/04/03 03:20:59;;;;;;;10.20;9.13;;;5.50;99.90;;;;;;5006541;28;20189;-81
2021/04/03 03:23:26;;;;;;;10.43;9.43;;;5.50;99.90;;;;;;5015459;28;20229;-79
2021/04/03 03:25:55;;;;;;;10.37;9.37;;;5.50;99.90;;;;;;5015775;28;20359;-80
2021/04/03 03:28:23;;;;;;;15.90;10.40;;;5.50;99.90;;;;;;5007484;28;20221;-80
2021/04/03 03:30:50;;;;;;;13.77;9.70;;;5.50;99.90;;;;;;5018826;28;20247;-78
2021/04/03 03:33:22;;;;;;;12.70;9.43;;;5.50;99.90;;;;;;5020472;28;20191;-80
2021/04/03 03:35:49;;;;;;;9.07;8.37;;;5.40;99.90;;;;;;5026647;28;20754;-81
2021/04/03 03:38:17;;;;;;;10.17;9.03;;;5.40;99.90;;;;;;5018112;28;20184;-81
2021/04/03 03:40:45;;;;;;;11.13;9.30;;;5.40;99.90;;;;;;5014580;28;20197;-80
2021/04/03 03:43:17;;;;;;;9.87;8.97;;;5.40;99.90;;;;;;5015529;28;20286;-80
2021/04/03 03:45:47;;;;;;;11.50;8.80;;;5.40;99.90;;;;;;5006038;28;20236;-81
2021/04/03 03:48:14;;;;;;;9.70;8.60;;;5.40;99.90;;;;;;4998790;28;20317;-80
2021/04/03 03:50:41;;;;;;;10.40;9.30;;;5.40;99.90;;;;;;5011635;28;20194;-77
2021/04/03 03:53:09;;;;;;;10.73;9.13;;;5.30;99.90;;;;;;5002956;28;20296;-80
2021/04/03 03:55:37;;;;;;;10.50;8.80;;;5.20;99.90;;;;;;5011687;28;20220;-79
2021/04/03 03:58:09;;;;;;;11.97;9.47;;;5.20;99.90;;;;;;4999980;28;20622;-80
2021/04/03 04:00:40;;;;;;;12.80;9.80;;;5.20;99.90;;;;;;5007140;28;20229;-80
2021/04/03 04:03:10;;;;;;;11.63;9.10;;;5.20;99.90;;;;;;4999422;28;20690;-81
2021/04/03 04:05:44;;;;;;;14.93;9.90;;;5.20;99.90;;;;;;5007642;28;20997;-80
2021/04/03 04:08:13;;;;;;;10.43;9.00;;;5.20;99.90;;;;;;4997899;28;20229;-80
2021/04/03 04:10:41;;;;;;;10.07;9.17;;;5.20;99.90;;;;;;4996670;28;20665;-81
2021/04/03 04:13:09;;;;;;;13.07;9.10;;;5.20;99.90;;;;;;4994897;28;20455;-80
2021/04/03 04:15:38;;;;;;;10.40;9.30;;;5.20;99.90;;;;;;4997572;28;20228;-79
2021/04/03 04:18:05;;;;;;;11.67;9.07;;;5.10;99.90;;;;;;4997824;28;20193;-80
2021/04/03 04:20:32;;;;;;;9.80;8.90;;;5.20;99.90;;;;;;5002299;28;20651;-80
2021/04/03 04:23:02;;;;;;;10.17;9.27;;;5.20;99.90;;;;;;5002281;28;20204;-80
2021/04/03 04:25:36;;;;;;;9.50;8.70;;;5.20;99.90;;;;;;5012724;28;20232;-79
2021/04/03 04:28:05;;;;;;;10.93;9.23;;;5.20;99.90;;;;;;5012084;28;20227;-80
2021/04/03 04:30:32;;;;;;;10.57;9.47;;;5.20;99.90;;;;;;5018984;28;20287;-79
2021/04/03 04:33:06;;;;;;;10.90;8.93;;;5.20;99.90;;;;;;5018366;28;20197;-81
2021/04/03 04:35:33;;;;;;;11.23;9.83;;;5.20;99.90;;;;;;5014747;28;20278;-82
2021/04/03 04:38:02;;;;;;;12.47;10.37;;;5.20;99.90;;;;;;5014781;28;20442;-81
2021/04/03 04:40:34;;;;;;;10.80;9.70;;;5.30;99.90;;;;;;5008739;28;20255;-84
2021/04/03 04:43:01;;;;;;;10.80;9.80;;;5.20;99.90;;;;;;5021058;28;20207;-80
2021/04/03 04:45:34;;;;;;;12.57;9.70;;;5.30;99.90;;;;;;5006864;28;20224;-79
2021/04/03 04:48:02;;;;;;;10.23;8.97;;;5.20;99.90;;;;;;5019618;28;20208;-78
2021/04/03 04:50:31;;;;;;;11.47;9.17;;;5.30;99.90;;;;;;5014222;28;20231;-79
2021/04/03 04:52:58;;;;;;;11.07;10.00;;;5.20;99.90;;;;;;5018994;28;20211;-79
2021/04/03 04:55:27;;;;;;;10.30;9.30;;;5.30;99.90;;;;;;5009878;28;20221;-79
2021/04/03 04:57:54;;;;;;;9.90;9.10;;;5.20;99.90;;;;;;5016779;28;20678;-81
2021/04/03 05:00:26;;;;;;;10.37;9.23;;;5.30;99.90;;;;;;5020682;28;20447;-79
2021/04/03 05:03:04;;;;;;;10.53;9.40;;;5.20;99.90;;;;;;5008450;28;20868;-81
2021/04/03 05:05:30;;;;;;;10.23;9.30;;;5.20;99.90;;;;;;5012020;28;20231;-80
2021/04/03 05:07:56;;;;;;;10.70;8.93;;;5.20;99.90;;;;;;5024807;28;20219;-79
2021/04/03 05:10:23;;;;;;;10.20;9.10;;;5.30;99.90;;;;;;5014989;28;20439;-80
2021/04/03 05:12:49;;;;;;;10.10;9.10;;;5.20;99.90;;;;;;5013472;28;20205;-81
2021/04/03 05:15:16;;;;;;;10.27;9.27;;;5.20;99.90;;;;;;5012610;28;20224;-78
2021/04/03 05:17:42;;;;;;;9.90;8.77;;;5.30;99.90;;;;;;5011571;28;20201;-81
2021/04/03 05:20:10;;;;;;;9.90;8.70;;;5.30;99.90;;;;;;5009815;28;20652;-80
2021/04/03 05:22:37;;;;;;;9.37;8.47;;;5.30;99.90;;;;;;5027089;28;20193;-79
2021/04/03 05:25:04;;;;;;;10.33;9.13;;;5.30;99.90;;;;;;5013129;28;20220;-80
2021/04/03 05:27:30;;;;;;;10.20;9.20;;;5.30;99.90;;;;;;5013140;28;20223;-81
2021/04/03 05:29:56;;;;;;;12.23;9.40;;;5.30;99.90;;;;;;5008692;28;20678;-82
2021/04/03 05:32:23;;;;;;;9.57;8.67;;;5.40;99.90;;;;;;5012881;28;20578;-81
2021/04/03 05:34:49;;;;;;;10.47;8.43;;;5.50;99.90;;;;;;5013252;28;20235;-82
2021/04/03 05:37:16;;;;;;;9.63;8.73;;;5.60;99.90;;;;;;5012736;28;20207;-79
2021/04/03 05:39:42;;;;;;;11.23;8.60;;;5.70;99.90;;;;;;5012974;28;20223;-82
2021/04/03 05:42:14;;;;;;;9.63;8.73;;;5.90;99.90;;;;;;5001356;28;20243;-82
2021/04/03 05:44:42;;;;;;;13.07;7.77;;;6.30;99.90;;;;;;5011036;28;20205;-82
2021/04/03 05:47:09;;;;;;;10.73;7.93;;;6.60;99.90;;;;;;5001107;28;20256;-81
2021/04/03 05:49:36;;;;;;;9.00;8.27;;;6.90;99.90;;;;;;4999841;28;20205;-80
2021/04/03 05:52:04;;;;;;;9.40;8.60;;;7.20;99.90;;;;;;5009981;28;20198;-81
2021/04/03 05:54:32;;;;;;;10.80;8.03;;;7.30;99.90;;;;;;5014661;28;20745;-79
2021/04/03 05:56:59;;;;;;;8.23;7.43;;;7.40;99.90;;;;;;5021082;28;20203;-83
2021/04/03 05:59:25;;;;;;;8.47;7.70;;;7.50;99.90;;;;;;5016127;28;20206;-83
2021/04/03 06:01:52;;;;;;;8.27;7.30;;;7.60;99.90;;;;;;5021547;28;20205;-83
2021/04/03 06:04:18;;;;;;;8.30;7.50;;;7.70;99.90;;;;;;5012727;28;20248;-82
2021/04/03 06:06:45;;;;;;;10.10;7.90;;;7.70;99.90;;;;;;5014536;28;20213;-82
2021/04/03 06:09:11;;;;;;;8.70;7.70;;;7.60;99.90;;;;;;5016548;28;20291;-82
2021/04/03 06:11:45;;;;;;;7.63;7.03;;;7.70;99.90;;;;;;5014580;28;20225;-82
2021/04/03 06:14:12;;;;;;;8.40;7.53;;;7.60;99.90;;;;;;5018254;28;20223;-84
2021/04/03 06:16:39;;;;;;;8.30;7.43;;;7.60;99.90;;;;;;5012337;28;20227;-82
2021/04/03 06:19:24;;;;;;;8.87;7.87;;;7.30;99.90;;;;;;5018836;28;20652;-82
2021/04/03 06:21:57;;;;;;;12.07;8.20;;;7.10;99.90;;;;;;5018520;28;20200;-81
2021/04/03 06:24:25;;;;;;;9.93;7.47;;;7.00;99.90;;;;;;5017473;28;20213;-82
2021/04/03 06:26:58;;;;;;;7.93;7.23;;;6.90;99.90;;;;;;5005309;28;20203;-83
2021/04/03 06:29:31;;;;;;;7.13;6.53;;;6.80;99.90;;;;;;5023898;28;20274;-82
2021/04/03 06:31:59;;;;;;;8.23;7.43;;;6.70;99.90;;;;;;5005096;28;20229;-82
2021/04/03 06:34:34;;;;;;;9.13;7.83;;;6.70;99.90;;;;;;5003844;28;20226;-82
2021/04/03 06:37:02;;;;;;;8.13;7.37;;;6.60;99.90;;;;;;5010005;28;20206;-82
2021/04/03 06:39:29;;;;;;;8.60;7.33;;;6.80;99.90;;;;;;5007595;28;20210;-82
2021/04/03 06:41:57;;;;;;;8.60;7.80;;;6.90;99.90;;;;;;5021804;28;20203;-82
2021/04/03 06:44:24;;;;;;;8.13;7.33;;;6.90;99.90;;;;;;5021961;28;20200;-82
2021/04/03 06:47:00;;;;;;;8.30;7.57;;;6.90;99.90;;;;;;5022074;28;20875;-82
2021/04/03 06:49:28;;;;;;;8.43;7.53;;;7.00;99.90;;;;;;5017355;28;20226;-82
2021/04/03 06:51:54;;;;;;;10.60;7.13;;;7.00;99.90;;;;;;5020230;28;20193;-81
2021/04/03 06:54:21;;;;;;;8.30;7.40;;;6.90;99.90;;;;;;5018763;28;20678;-82
2021/04/03 06:56:54;;;;;;;8.20;7.47;;;6.80;99.90;;;;;;5015920;28;20356;-82
2021/04/03 06:59:24;;;;;;;7.83;7.03;;;6.80;99.90;;;;;;5020218;28;20201;-79
2021/04/03 07:01:52;;;;;;;7.90;7.17;;;6.90;99.90;;;;;;5022462;28;20201;-79
2021/04/03 07:04:27;;;;;;;10.57;7.40;;;6.80;99.90;;;;;;5017884;28;20186;-80
2021/04/03 07:06:54;;;;;;;8.20;7.07;;;6.70;99.90;;;;;;5016406;28;20202;-80
2021/04/03 07:09:20;;;;;;;9.60;7.83;;;6.90;99.90;;;;;;5018804;28;20217;-80
2021/04/03 07:11:48;;;;;;;8.07;7.37;;;6.80;99.90;;;;;;5014423;28;20198;-80
2021/04/03 07:14:19;;;;;;;8.73;7.37;;;6.90;99.90;;;;;;5016789;28;20194;-79
2021/04/03 07:16:48;;;;;;;7.30;6.60;;;7.10;99.90;;;;;;5017499;28;20307;-80
2021/04/03 07:19:15;;;;;;;8.13;6.80;;;7.30;99.90;;;;;;5016529;28;20194;-79
2021/04/03 07:21:42;;;;;;;7.23;6.50;;;7.80;99.90;;;;;;5021425;28;20254;-80
2021/04/03 07:24:11;;;;;;;7.40;6.60;;;8.20;99.90;;;;;;5017336;28;20203;-79
2021/04/03 07:26:39;;;;;;;6.67;6.07;;;8.20;99.90;;;;;;5018711;28;20222;-79
2021/04/03 07:29:05;;;;;;;7.37;6.63;;;8.50;99.90;;;;;;5012078;28;20225;-80
2021/04/03 07:31:41;;;;;;;7.27;6.57;;;8.60;99.90;;;;;;5019623;28;20195;-78
2021/04/03 07:34:10;;;;;;;7.37;6.67;;;8.40;99.90;;;;;;5014393;28;20206;-80
2021/04/03 07:36:39;;;;;;;7.07;6.37;;;8.10;99.90;;;;;;5018511;28;20223;-79
2021/04/03 07:39:07;;;;;;;7.83;6.60;;;8.20;99.90;;;;;;5020685;28;20583;-80
2021/04/03 07:41:39;;;;;;;7.25;6.55;;;8.10;99.90;;;;;;5014517;28;20429;-80
2021/04/03 07:44:10;;;;;;;8.07;7.13;;;8.20;99.90;;;;;;5015345;28;20200;-82
2021/04/03 07:46:42;;;;;;;7.17;6.50;;;8.00;99.90;;;;;;5014113;28;20277;-82
2021/04/03 07:49:11;;;;;;;7.57;6.53;;;8.00;99.90;;;;;;5011393;28;20611;-81
2021/04/03 07:51:48;;;;;;;6.73;6.03;;;8.40;99.90;;;;;;5013202;28;20207;-81
2021/04/03 07:54:27;;;;;;;6.47;5.87;;;8.40;99.90;;;;;;5011701;28;20200;-82
2021/04/03 07:56:56;;;;;;;6.70;6.00;;;8.60;99.90;;;;;;5016877;28;20288;-80
2021/04/03 07:59:54;;;;;;;8.27;6.20;;;8.50;99.90;;;;;;5011073;28;20196;-80
2021/04/03 08:02:26;;;;;;;6.60;5.90;;;8.70;99.90;;;;;;5012138;28;20206;-80
2021/04/03 08:04:56;;;;;;;6.53;5.90;;;9.00;99.90;;;;;;5016816;28;20353;-80
2021/04/03 08:07:23;;;;;;;7.67;6.50;;;9.20;99.90;;;;;;5009894;28;20228;-79
2021/04/03 08:09:50;;;;;;;6.57;6.03;;;9.20;99.90;;;;;;5010719;28;20210;-85
2021/04/03 08:12:20;;;;;;;7.03;6.33;;;9.20;99.90;;;;;;5018380;28;20195;-79
2021/04/03 08:14:52;;;;;;;6.60;6.10;;;9.40;99.90;;;;;;5013629;28;20220;-80
2021/04/03 08:17:22;;;;;;;6.90;5.93;;;9.70;99.90;;;;;;5011011;28;20200;-81
2021/04/03 08:19:49;;;;;;;7.63;6.40;;;9.80;99.90;;;;;;5017382;28;20679;-80
2021/04/03 08:22:16;;;;;;;6.57;5.93;;;9.70;99.90;;;;;;5018753;28;20197;-80
2021/04/03 08:24:55;;;;;;;7.80;6.77;;;9.50;99.90;;;;;;5015086;28;20180;-81
2021/04/03 08:27:34;;;;;;;6.43;5.70;;;9.40;99.90;;;;;;5016820;28;20300;-78
2021/04/03 08:30:00;;;;;;;8.23;6.70;;;9.60;99.90;;;;;;5013613;28;20196;-79
2021/04/03 08:32:26;;;;;;;6.87;6.17;;;9.60;99.90;;;;;;5016098;28;20208;-78
2021/04/03 08:34:53;;;;;;;6.90;6.23;;;9.30;99.90;;;;;;5010702;28;20220;-78
2021/04/03 08:37:20;;;;;;;6.77;6.27;;;9.10;99.90;;;;;;5017254;28;20207;-79
2021/04/03 08:39:47;;;;;;;6.40;5.90;;;9.10;99.90;;;;;;5018237;28;20567;-78
2021/04/03 08:42:13;;;;;;;7.00;6.30;;;9.30;99.90;;;;;;5019114;28;20199;-78
2021/04/03 08:44:44;;;;;;;9.47;6.50;;;9.60;99.90;;;;;;5020421;28;20197;-78
2021/04/03 08:47:10;;;;;;;6.77;6.17;;;9.80;99.90;;;;;;5021336;28;20231;-78
2021/04/03 08:53:06;;;;;;;7.30;6.60;;;10.10;99.90;;;;;;5005425;28;20214;-78
2021/04/03 08:55:54;;;;;;;8.07;6.37;;;10.20;99.90;;;;;;5017488;28;20216;-78
2021/04/03 08:58:20;;;;;;;7.40;6.13;;;10.20;99.90;;;;;;4999730;28;20670;-77
2021/04/03 09:00:50;;;;;;;7.63;5.07;;;10.40;99.20;;;;;;5004831;28;20209;-78
2021/04/03 09:03:17;;;;;;;6.80;3.97;;;10.50;99.90;;;;;;5007764;28;20203;-77
2021/04/03 09:05:47;;;;;;;7.50;3.70;;;10.30;99.80;;;;;;5011974;28;20217;-77
2021/04/03 09:08:23;;;;;;;6.43;4.90;;;10.10;99.90;;;;;;5019907;28;20643;-77
2021/04/03 09:10:54;;;;;;;5.93;5.30;;;9.90;99.90;;;;;;5013114;28;20197;-79
2021/04/03 09:13:20;;;;;;;8.40;6.87;;;9.80;99.90;;;;;;5006825;28;20211;-79
2021/04/03 09:15:47;;;;;;;7.70;6.77;;;9.40;99.90;;;;;;5014030;28;20240;-78
2021/04/03 09:18:14;;;;;;;7.67;6.90;;;9.30;99.90;;;;;;5020226;28;20650;-79
2021/04/03 09:20:49;;;;;;;13.80;6.77;;;9.20;99.90;;;;;;5014457;28;20276;-77
2021/04/03 09:23:15;;;;;;;7.17;6.40;;;9.30;99.90;;;;;;5016522;28;20196;-78
2021/04/03 09:25:44;;;;;;;6.43;5.83;;;9.30;99.90;;;;;;5016373;28;20279;-77
2021/04/03 09:28:12;;;;;;;6.50;5.80;;;9.30;99.90;;;;;;5019345;28;20243;-78
2021/04/03 09:30:40;;;;;;;9.07;5.93;;;9.30;99.90;;;;;;5015911;28;20196;-80
2021/04/03 09:33:21;;;;;;;5.73;5.13;;;9.20;99.90;;;;;;5016701;28;20228;-78
2021/04/03 09:35:48;;;;;;;5.50;5.00;;;9.20;99.90;;;;;;5013768;28;20307;-77
2021/04/03 09:38:26;;;;;;;7.03;6.40;;;9.50;99.90;;;;;;5017028;28;20200;-78
2021/04/03 09:40:53;;;;;;;6.33;5.80;;;10.60;99.80;;;;;;5009940;28;20207;-79
2021/04/03 09:43:20;;;;;;;3.83;2.93;;;11.40;99.00;;;;;;5015867;28;20279;-78
2021/04/03 09:45:46;;;;;;;7.73;5.70;;;12.50;97.10;;;;;;5020604;28;20222;-78
2021/04/03 09:48:13;;;;;;;5.60;5.20;;;13.00;96.60;;;;;;5024208;28;20269;-78
2021/04/03 09:50:40;;;;;;;7.20;6.00;;;12.80;93.40;;;;;;5022061;28;20287;-79
2021/04/03 09:53:08;;;;;;;5.70;5.20;;;12.90;93.90;;;;;;5022401;28;20209;-78
2021/04/03 09:55:35;;;;;;;5.40;4.40;;;12.80;95.10;;;;;;5016803;28;20225;-78
2021/04/03 09:58:02;;;;;;;5.63;4.87;;;12.20;94.50;;;;;;5028078;28;20218;-78
2021/04/03 10:00:28;;;;;;;4.90;4.50;;;11.70;95.10;;;;;;5025627;28;20203;-79
2021/04/03 10:02:55;;;;;;;5.43;4.63;;;11.70;96.00;;;;;;5018977;28;20205;-77
2021/04/03 10:05:21;;;;;;;6.80;5.03;;;11.70;95.10;;;;;;5023420;28;20223;-78
2021/04/03 10:07:48;;;;;;;4.83;4.40;;;11.70;95.20;;;;;;5013490;28;20574;-78
2021/04/03 10:10:15;;;;;;;6.33;4.97;;;11.40;94.30;;;;;;5026096;28;20200;-78
2021/04/03 10:12:41;;;;;;;9.07;7.53;;;11.00;94.50;;;;;;5018196;28;20193;-79
2021/04/03 10:15:10;;;;;;;10.27;7.90;;;11.00;94.80;;;;;;5024329;28;20280;-79
2021/04/03 10:17:37;;;;;;;5.90;5.10;;;11.30;95.10;;;;;;5020551;28;20196;-78
2021/04/03 10:20:04;;;;;;;5.57;4.70;;;11.60;94.80;;;;;;5017206;28;20219;-78
2021/04/03 10:22:31;;;;;;;6.03;5.20;;;11.70;94.30;;;;;;5023383;28;20197;-78
2021/04/03 10:24:57;;;;;;;6.80;5.03;;;11.80;94.80;;;;;;5018881;28;20222;-78
2021/04/03 10:27:23;;;;;;;5.80;4.80;;;11.70;93.90;;;;;;5021011;28;20198;-78
2021/04/03 10:29:49;;;;;;;5.20;4.70;;;11.20;94.40;;;;;;5018730;28;20635;-78
2021/04/03 10:32:17;;;;;;;5.13;4.73;;;11.00;95.10;;;;;;5018486;28;20203;-76
2021/04/03 10:34:43;;;;;;;5.90;4.40;;;10.50;95.30;;;;;;5020970;28;20197;-77
2021/04/03 10:37:10;;;;;;;5.00;4.50;;;10.50;96.50;;;;;;5018933;28;20723;-78
2021/04/03 10:39:36;;;;;;;6.33;5.30;;;10.40;95.90;;;;;;5020222;28;20199;-78
2021/04/03 10:42:03;;;;;;;6.27;4.60;;;10.50;95.70;;;;;;5019020;28;20573;-78
2021/04/03 10:44:29;;;;;;;6.40;5.03;;;10.60;96.70;;;;;;5017477;28;20205;-78
2021/04/03 10:46:56;;;;;;;6.07;5.00;;;10.70;96.20;;;;;;5010689;28;20267;-77
2021/04/03 10:49:23;;;;;;;5.63;5.13;;;10.90;96.80;;;;;;5014539;28;20224;-78
2021/04/03 10:51:49;;;;;;;7.50;5.80;;;10.70;96.20;;;;;;5013548;28;20205;-78
2021/04/03 10:54:18;;;;;;;5.90;5.37;;;10.60;96.30;;;;;;5014472;28;20661;-78
2021/04/03 10:56:45;;;;;;;5.93;4.43;;;10.50;96.70;;;;;;5017603;28;20208;-78
2021/04/03 10:59:11;;;;;;;7.50;5.77;;;10.50;96.60;;;;;;5015750;28;20200;-77
2021/04/03 11:01:38;;;;;;;7.20;6.00;;;10.40;96.50;;;;;;5012457;28;20204;-78
2021/04/03 11:04:05;;;;;;;6.97;6.33;;;10.70;96.50;;;;;;5015218;28;20275;-78
2021/04/03 11:06:32;;;;;;;7.17;5.93;;;10.70;95.70;;;;;;5011061;28;20212;-78
2021/04/03 11:08:58;;;;;;;7.30;6.60;;;10.80;95.80;;;;;;5022037;28;20213;-77
2021/04/03 11:11:24;;;;;;;6.97;6.37;;;10.70;95.10;;;;;;5019544;28;20208;-78
2021/04/03 11:13:51;;;;;;;6.87;6.27;;;10.50;95.40;;;;;;5006364;28;20200;-78
2021/04/03 11:16:17;;;;;;;6.73;6.13;;;10.20;95.10;;;;;;5017298;28;20224;-78
2021/04/03 11:18:44;;;;;;;6.80;6.30;;;10.30;95.40;;;;;;5020127;28;20212;-78
2021/04/03 11:21:10;;;;;;;7.00;6.37;;;10.20;95.10;;;;;;5018412;28;20203;-78
2021/04/03 11:23:37;;;;;;;6.60;6.00;;;10.00;96.00;;;;;;5006189;28;20189;-78
2021/04/03 11:26:04;;;;;;;6.53;6.03;;;10.00;96.40;;;;;;5003852;28;20227;-78
2021/04/03 11:28:30;;;;;;;6.57;5.97;;;10.00;95.40;;;;;;5015574;28;20604;-77
2021/04/03 11:30:56;;;;;;;6.47;5.87;;;10.20;95.60;;;;;;5015263;28;20200;-78
2021/04/03 11:33:23;;;;;;;6.47;5.97;;;10.60;95.70;;;;;;5015556;28;20207;-78
2021/04/03 11:35:50;;;;;;;7.20;6.40;;;10.80;95.50;;;;;;5015694;28;20301;-79
2021/04/03 11:38:19;;;;;;;6.50;5.90;;;10.70;94.50;;;;;;5012836;28;20193;-79
2021/04/03 11:40:47;;;;;;;6.50;5.90;;;10.80;94.50;;;;;;5014946;28;20620;-78
2021/04/03 11:43:13;;;;;;;6.17;5.67;;;10.60;94.40;;;;;;5018941;28;20272;-77
2021/04/03 11:45:40;;;;;;;6.57;6.00;;;10.60;95.10;;;;;;5015690;28;20870;-77
2021/04/03 11:48:07;;;;;;;8.43;6.60;;;10.60;95.00;;;;;;5013167;28;20299;-77
2021/04/03 11:50:33;;;;;;;6.47;5.93;;;10.40;95.00;;;;;;5015927;28;20251;-77
2021/04/03 11:53:00;;;;;;;6.37;5.77;;;10.50;95.30;;;;;;5010630;28;20235;-77
2021/04/03 11:55:27;;;;;;;5.77;5.37;;;10.60;95.70;;;;;;5020388;28;20552;-77
2021/04/03 11:57:54;;;;;;;5.67;5.23;;;10.80;95.00;;;;;;5015332;28;20199;-77
2021/04/03 12:00:22;;;;;;;6.07;5.57;;;10.90;94.60;;;;;;5017569;28;20201;-77
2021/04/03 12:02:48;;;;;;;5.83;5.30;;;11.00;94.40;;;;;;5015759;28;20194;-78
2021/04/03 12:05:16;;;;;;;6.17;5.57;;;11.00;93.80;;;;;;5014423;28;20226;-77
2021/04/03 12:07:43;;;;;;;6.00;5.40;;;10.90;94.20;;;;;;5010324;28;20201;-77
2021/04/03 12:10:12;;;;;;;6.03;5.53;;;10.80;93.80;;;;;;5014040;28;20241;-77
2021/04/03 12:12:39;;;;;;;6.03;5.50;;;10.50;93.80;;;;;;5013466;28;20198;-77
2021/04/03 12:15:08;;;;;;;8.13;5.73;;;10.50;95.00;;;;;;5012642;28;20221;-78
2021/04/03 12:17:35;;;;;;;6.67;6.00;;;10.50;95.80;;;;;;5018695;28;20292;-77
2021/04/03 12:20:05;;;;;;;6.40;5.80;;;10.60;96.40;;;;;;5012203;28;20206;-77
2021/04/03 12:22:32;;;;;;;7.97;5.27;;;10.80;96.50;;;;;;5013675;28;20204;-77
2021/04/03 12:24:58;;;;;;;6.37;5.83;;;11.00;95.70;;;;;;5012638;28;20205;-78
2021/04/03 12:27:25;;;;;;;6.80;5.73;;;11.20;96.10;;;;;;5011240;28;20734;-73
2021/04/03 12:29:51;;;;;;;6.33;5.33;;;11.30;95.10;;;;;;5018104;28;20720;-79
2021/04/03 12:32:18;;;;;;;6.10;5.50;;;11.30;95.10;;;;;;5013583;28;20194;-78
2021/04/03 12:34:45;;;;;;;5.97;5.47;;;11.20;95.00;;;;;;5011301;28;20208;-78
2021/04/03 12:37:13;;;;;;;7.27;6.27;;;11.30;94.30;;;;;;4999940;28;20204;-79
2021/04/03 12:39:40;;;;;;;6.40;5.80;;;11.00;93.80;;;;;;5011202;28;20659;-77
2021/04/03 12:42:07;;;;;;;6.83;5.60;;;11.00;94.10;;;;;;5011683;28;20198;-77
2021/04/03 12:44:33;;;;;;;7.10;5.93;;;11.10;94.50;;;;;;5007727;28;20197;-77
2021/04/03 12:47:00;;;;;;;7.07;6.47;;;11.40;94.40;;;;;;5011939;28;20201;-81
2021/04/03 12:49:27;;;;;;;7.50;5.60;;;11.30;94.00;;;;;;5015841;28;20226;-79
2021/04/03 12:51:55;;;;;;;6.30;5.70;;;11.50;93.40;;;;;;5018130;28;20204;-79
2021/04/03 12:54:22;;;;;;;6.13;5.63;;;11.80;93.00;;;;;;5015836;28;20218;-80
2021/04/03 12:56:48;;;;;;;5.93;5.43;;;12.00;92.70;;;;;;5018658;28;20221;-80
2021/04/03 12:59:15;;;;;;;6.10;5.50;;;12.00;92.10;;;;;;5009824;28;20204;-81
2021/04/03 13:01:42;;;;;;;5.30;4.90;;;12.00;91.20;;;;;;5014054;28;20204;-78
2021/04/03 13:04:08;;;;;;;4.87;2.90;;;12.00;91.30;;;;;;5018798;28;20202;-78